createdAt,value
2022-10-24T00:00:13.531Z,99.99
2022-10-24T00:01:13.446Z,99.99
2022-10-24T00:02:13.432Z,99.99
2022-10-24T00:03:13.499Z,99.99
2022-10-24T00:04:13.408Z,99.99
2022-10-24T00:05:13.418Z,99.99
2022-10-24T00:06:13.397Z,99.99
2022-10-24T00:07:13.379Z,99.99
2022-10-24T00:08:13.367Z,99.99
2022-10-24T00:09:13.359Z,99.99
2022-10-24T00:10:13.347Z,99.99
2022-10-24T00:11:13.349Z,99.99
2022-10-24T00:12:13.432Z,99.99
2022-10-24T00:13:13.314Z,99.99
2022-10-24T00:14:13.305Z,99.99
2022-10-24T00:15:13.299Z,99.99
2022-10-24T00:16:13.281Z,99.99
2022-10-24T00:17:13.288Z,99.99
2022-10-24T00:18:13.260Z,99.99
2022-10-24T00:19:13.252Z,99.99
2022-10-24T00:20:13.238Z,99.99
2022-10-24T00:21:13.234Z,99.99
2022-10-24T00:22:13.224Z,99.99
2022-10-24T00:23:13.235Z,99.99
2022-10-24T00:24:13.198Z,99.99
2022-10-24T00:25:13.196Z,99.99
2022-10-24T00:26:13.176Z,99.99
2022-10-24T00:27:13.170Z,99.99
2022-10-24T00:28:13.153Z,99.99
2022-10-24T00:29:13.172Z,99.99
2022-10-24T00:30:13.136Z,99.99
2022-10-24T00:31:13.145Z,99.99
2022-10-24T00:32:13.109Z,99.99
2022-10-24T00:33:13.128Z,99.99
2022-10-24T00:34:13.093Z,99.99
2022-10-24T00:35:13.085Z,99.99
2022-10-24T00:36:13.069Z,99.99
2022-10-24T00:37:13.086Z,99.99
2022-10-24T00:38:13.048Z,99.99
2022-10-24T00:39:13.061Z,99.99
2022-10-24T00:40:13.058Z,99.99
2022-10-24T00:41:13.023Z,99.99
2022-10-24T00:42:13.000Z,99.99
2022-10-24T00:43:12.994Z,99.99
2022-10-24T00:44:13.029Z,99.99
2022-10-24T00:45:12.984Z,99.99
2022-10-24T00:46:12.994Z,99.99
2022-10-24T00:47:12.970Z,99.99
2022-10-24T00:48:12.942Z,99.99
2022-10-24T00:49:12.938Z,99.99
2022-10-24T00:50:12.921Z,99.99
2022-10-24T00:51:12.922Z,99.99
2022-10-24T00:52:12.937Z,99.99
2022-10-24T00:53:12.907Z,99.99
2022-10-24T00:54:12.878Z,99.99
2022-10-24T00:55:12.870Z,99.99
2022-10-24T00:56:12.883Z,99.99
2022-10-24T00:57:12.858Z,99.99
2022-10-24T00:58:12.834Z,99.99
2022-10-24T00:59:12.834Z,99.99
2022-10-24T01:00:12.848Z,99.99
2022-10-24T01:01:12.988Z,99.99
2022-10-24T01:03:12.792Z,99.99
2022-10-24T01:04:12.763Z,99.99
2022-10-24T01:05:12.788Z,99.99
2022-10-24T01:06:12.743Z,99.99
2022-10-24T01:07:12.739Z,99.99
2022-10-24T01:08:12.719Z,99.99
2022-10-24T01:09:12.716Z,99.99
2022-10-24T05:01:04.876Z,99.99
2022-10-24T05:02:05.773Z,99.99
2022-10-24T05:03:05.726Z,99.99
2022-10-24T05:04:05.726Z,99.99
2022-10-24T05:05:05.697Z,99.99
2022-10-24T05:06:05.706Z,99.99
2022-10-24T05:07:05.673Z,99.99
2022-10-24T05:08:05.679Z,99.99
2022-10-24T05:09:05.699Z,99.99
2022-10-24T05:10:05.656Z,99.99
2022-10-24T05:11:05.637Z,99.99
2022-10-24T05:12:05.637Z,99.99
2022-10-24T05:13:05.630Z,99.99
2022-10-24T05:14:05.629Z,99.99
2022-10-24T05:15:05.611Z,99.99
2022-10-24T05:16:05.586Z,99.99
2022-10-24T05:17:11.677Z,99.99
2022-10-24T05:18:05.557Z,99.99
2022-10-24T05:19:05.559Z,99.99
2022-10-24T05:20:05.539Z,99.99
2022-10-24T05:21:05.528Z,99.99
2022-10-24T05:22:08.535Z,99.99
2022-10-24T05:23:05.507Z,99.99
2022-10-24T05:24:05.517Z,99.99
2022-10-24T05:25:05.500Z,99.99
2022-10-24T05:26:05.474Z,99.99
2022-10-24T05:27:05.459Z,99.99
2022-10-24T05:28:05.446Z,99.99
2022-10-24T05:29:05.435Z,99.99
2022-10-24T05:30:05.441Z,99.99
2022-10-24T05:31:05.416Z,99.99
2022-10-24T05:32:05.425Z,99.99
2022-10-24T05:33:05.447Z,99.99
2022-10-24T05:34:05.384Z,99.99
2022-10-24T05:35:05.368Z,99.99
2022-10-24T05:36:05.395Z,99.99
2022-10-24T05:37:05.361Z,99.99
2022-10-24T05:38:05.339Z,99.99
2022-10-24T05:39:05.329Z,99.99
2022-10-24T05:40:05.319Z,99.99
2022-10-24T05:41:05.248Z,99.99
2022-10-24T05:42:05.268Z,99.99
2022-10-24T05:43:05.231Z,99.99
2022-10-24T05:44:05.225Z,99.99
2022-10-24T05:45:05.211Z,99.99
2022-10-24T05:46:05.211Z,99.99
2022-10-24T05:47:05.182Z,99.99
2022-10-24T05:48:05.194Z,99.99
2022-10-24T05:49:05.178Z,99.99
2022-10-24T05:50:05.161Z,99.99
2022-10-24T05:51:05.143Z,99.99
2022-10-24T05:52:05.133Z,99.99
2022-10-24T05:53:05.115Z,99.99
2022-10-24T05:54:05.170Z,99.99
2022-10-24T05:55:07.644Z,99.99
2022-10-24T05:56:05.089Z,99.99
2022-10-24T05:57:05.104Z,99.99
2022-10-24T05:58:05.063Z,99.99
2022-10-24T05:59:05.109Z,99.99
2022-10-24T06:00:05.048Z,99.99
2022-10-24T06:01:05.080Z,99.99
2022-10-24T06:02:05.084Z,99.99
2022-10-24T06:03:05.021Z,99.99
2022-10-24T06:04:07.771Z,99.99
2022-10-24T06:05:05.032Z,99.99
2022-10-24T06:06:04.989Z,99.99
2022-10-24T06:07:04.969Z,99.99
2022-10-24T06:08:04.963Z,99.99
2022-10-24T06:09:04.959Z,99.99
2022-10-24T06:10:04.934Z,99.99
2022-10-24T06:11:04.945Z,99.99
2022-10-24T06:12:04.920Z,99.99
2022-10-24T06:13:04.902Z,99.99
2022-10-24T06:14:04.894Z,99.99
2022-10-24T06:15:04.898Z,99.99
2022-10-24T06:16:04.879Z,99.99
2022-10-24T06:17:04.878Z,99.99
2022-10-24T06:18:04.867Z,99.99
2022-10-24T06:19:04.832Z,99.99
2022-10-24T06:20:04.836Z,99.99
2022-10-24T06:21:04.889Z,99.99
2022-10-24T06:22:04.816Z,99.99
2022-10-24T06:23:04.791Z,99.99
2022-10-24T06:24:04.787Z,99.99
2022-10-24T06:25:04.781Z,99.99
2022-10-24T06:26:04.776Z,99.99
2022-10-24T06:27:04.769Z,99.99
2022-10-24T06:28:04.838Z,99.99
2022-10-24T06:29:04.729Z,99.99
2022-10-24T06:30:04.732Z,99.99
2022-10-24T06:31:04.709Z,99.99
2022-10-24T06:32:05.410Z,99.99
2022-10-24T06:33:04.730Z,99.99
2022-10-24T06:34:04.675Z,99.99
2022-10-24T06:35:04.707Z,99.99
2022-10-24T06:36:04.663Z,99.99
2022-10-24T06:37:04.685Z,99.99
2022-10-24T06:38:04.709Z,99.99
2022-10-24T06:39:04.649Z,99.99
2022-10-24T06:40:04.678Z,99.99
2022-10-24T06:41:04.673Z,99.99
2022-10-24T06:42:04.601Z,99.99
2022-10-24T06:43:04.639Z,99.99
2022-10-24T06:44:07.704Z,99.99
2022-10-24T06:45:04.557Z,99.99
2022-10-24T06:46:04.542Z,99.99
2022-10-24T06:47:04.558Z,99.99
2022-10-24T06:48:04.551Z,99.99
2022-10-24T06:49:04.513Z,99.99
2022-10-24T06:50:04.517Z,99.99
2022-10-24T06:51:04.509Z,99.99
2022-10-24T06:52:04.522Z,99.99
2022-10-24T06:53:04.479Z,99.99
2022-10-24T06:54:04.480Z,99.99
2022-10-24T06:55:04.486Z,99.99
2022-10-24T06:56:04.449Z,99.99
2022-10-24T06:57:04.420Z,99.99
2022-10-24T06:58:04.427Z,99.99
2022-10-24T06:59:04.415Z,99.99
2022-10-24T07:00:04.403Z,99.99
2022-10-24T07:01:04.497Z,99.99
2022-10-24T07:02:06.013Z,99.99
2022-10-24T07:03:04.362Z,99.99
2022-10-24T07:04:04.347Z,99.99
2022-10-24T07:05:04.348Z,99.99
2022-10-24T07:06:04.357Z,99.99
2022-10-24T07:07:04.314Z,99.99
2022-10-24T07:08:04.345Z,99.99
2022-10-24T07:09:04.301Z,99.99
2022-10-24T07:10:04.288Z,99.99
2022-10-24T07:11:04.266Z,99.99
2022-10-24T07:12:04.305Z,99.99
2022-10-24T07:13:04.253Z,99.99
2022-10-24T07:14:06.899Z,99.99
2022-10-24T07:15:04.227Z,99.99
2022-10-24T07:16:04.218Z,99.99
2022-10-24T07:17:04.204Z,99.99
2022-10-24T07:18:04.223Z,99.99
2022-10-24T07:19:04.197Z,99.99
2022-10-24T07:20:04.170Z,99.99
2022-10-24T07:21:04.161Z,99.99
2022-10-24T07:22:04.178Z,99.99
2022-10-24T07:23:04.168Z,99.99
2022-10-24T07:24:04.182Z,99.99
2022-10-24T07:25:04.115Z,99.99
2022-10-24T07:26:04.119Z,99.99
2022-10-24T07:27:04.099Z,99.99
2022-10-24T07:28:04.095Z,99.99
2022-10-24T07:29:04.494Z,99.99
2022-10-24T07:30:05.701Z,99.99
2022-10-24T07:31:04.055Z,99.99
2022-10-24T07:32:04.061Z,99.99
2022-10-24T07:33:04.046Z,99.99
2022-10-24T07:34:04.028Z,99.99
2022-10-24T07:35:04.012Z,99.99
2022-10-24T07:36:04.042Z,99.99
2022-10-24T07:37:03.996Z,99.99
2022-10-24T07:38:03.982Z,99.99
2022-10-24T07:39:03.973Z,99.99
2022-10-24T07:40:03.968Z,99.99
2022-10-24T07:41:03.943Z,99.99
2022-10-24T07:42:03.970Z,99.99
2022-10-24T07:43:03.927Z,99.99
2022-10-24T07:44:03.929Z,99.99
2022-10-24T07:45:03.902Z,99.99
2022-10-24T07:46:03.888Z,99.99
2022-10-24T07:47:03.957Z,99.99
2022-10-24T07:48:03.869Z,99.99
2022-10-24T07:49:03.863Z,99.99
2022-10-24T07:50:03.842Z,99.99
2022-10-24T07:51:03.842Z,99.99
2022-10-24T07:52:03.828Z,99.99
2022-10-24T07:53:03.833Z,99.99
2022-10-24T07:54:03.838Z,99.99
2022-10-24T07:55:03.803Z,99.99
2022-10-24T07:56:03.787Z,99.99
2022-10-24T07:57:03.771Z,99.99
2022-10-24T07:58:03.795Z,99.99
2022-10-24T07:59:08.999Z,99.99
2022-10-24T08:00:03.748Z,99.99
2022-10-24T08:01:03.790Z,99.99
2022-10-24T08:02:03.715Z,99.99
2022-10-24T08:03:03.707Z,99.99
2022-10-24T08:04:03.697Z,99.99
2022-10-24T08:05:03.707Z,99.99
2022-10-24T08:06:03.683Z,99.99
2022-10-24T08:07:03.661Z,99.99
2022-10-24T08:08:21.721Z,99.99
2022-10-24T08:09:03.645Z,99.99
2022-10-24T08:10:03.652Z,99.99
2022-10-24T08:11:03.627Z,99.99
2022-10-24T08:12:03.609Z,99.99
2022-10-24T08:13:03.591Z,99.99
2022-10-24T08:14:03.593Z,99.99
2022-10-24T08:15:03.572Z,99.99
2022-10-24T08:16:03.592Z,99.99
2022-10-24T08:17:03.549Z,99.99
2022-10-24T08:18:03.546Z,99.99
2022-10-24T08:19:03.530Z,99.99
2022-10-24T08:20:03.528Z,99.99
2022-10-24T08:21:03.521Z,99.99
2022-10-24T08:22:03.509Z,99.99
2022-10-24T08:23:03.488Z,99.99
2022-10-24T08:24:03.500Z,99.99
2022-10-24T08:25:03.477Z,99.99
2022-10-24T08:26:03.467Z,99.99
2022-10-24T08:27:03.462Z,99.99
2022-10-24T08:28:06.580Z,99.99
2022-10-24T08:29:03.424Z,99.99
2022-10-24T08:30:03.437Z,99.99
2022-10-24T08:31:03.396Z,99.99
2022-10-24T08:32:03.390Z,99.99
2022-10-24T08:33:03.400Z,99.99
2022-10-24T08:34:03.379Z,99.99
2022-10-24T08:35:03.354Z,99.99
2022-10-24T08:36:03.357Z,99.99
2022-10-24T08:37:03.339Z,99.99
2022-10-24T08:38:03.322Z,99.99
2022-10-24T08:39:03.342Z,99.99
2022-10-24T08:40:03.300Z,99.99
2022-10-24T08:41:03.291Z,99.99
2022-10-24T08:42:03.287Z,99.99
2022-10-24T08:43:03.278Z,99.99
2022-10-24T08:44:03.257Z,99.99
2022-10-24T08:45:03.278Z,99.99
2022-10-24T08:46:03.239Z,99.99
2022-10-24T08:47:03.226Z,99.99
2022-10-24T08:48:03.222Z,99.99
2022-10-24T08:49:03.209Z,99.99
2022-10-24T08:50:03.214Z,99.99
2022-10-24T08:51:03.180Z,99.99
2022-10-24T08:52:03.171Z,99.99
2022-10-24T08:53:03.166Z,99.99
2022-10-24T08:54:03.166Z,99.99
2022-10-24T08:55:04.793Z,99.99
2022-10-24T08:56:03.168Z,99.99
2022-10-24T08:57:03.115Z,99.99
2022-10-24T08:58:03.107Z,99.99
2022-10-24T08:59:03.093Z,99.99
2022-10-24T09:00:03.103Z,99.99
2022-10-24T09:01:03.195Z,99.99
2022-10-24T09:02:04.561Z,99.99
2022-10-24T09:03:03.710Z,99.99
2022-10-24T09:04:03.042Z,99.99
2022-10-24T09:05:03.039Z,99.99
2022-10-24T09:06:03.032Z,99.99
2022-10-24T09:07:03.008Z,99.99
2022-10-24T09:08:03.043Z,99.99
2022-10-24T09:09:02.992Z,99.99
2022-10-24T09:10:03.026Z,99.99
2022-10-24T09:11:02.980Z,99.99
2022-10-24T09:12:02.979Z,99.99
2022-10-24T09:13:02.946Z,99.99
2022-10-24T09:14:02.984Z,99.99
2022-10-24T09:15:02.926Z,99.99
2022-10-24T09:16:02.916Z,99.99
2022-10-24T09:17:02.899Z,99.99
2022-10-24T09:18:02.885Z,99.99
2022-10-24T09:19:02.882Z,99.99
2022-10-24T09:20:02.944Z,99.99
2022-10-24T09:21:02.880Z,99.99
2022-10-24T09:22:02.845Z,99.99
2022-10-24T09:23:02.832Z,99.99
2022-10-24T09:24:02.830Z,99.99
2022-10-24T09:25:02.904Z,99.99
2022-10-24T09:26:02.846Z,99.99
2022-10-24T09:27:02.795Z,99.99
2022-10-24T09:28:02.783Z,99.99
2022-10-24T09:29:02.780Z,99.99
2022-10-24T09:30:02.754Z,99.99
2022-10-24T09:31:02.770Z,99.99
2022-10-24T09:32:02.733Z,99.99
2022-10-24T09:33:02.749Z,99.99
2022-10-24T09:34:02.713Z,99.99
2022-10-24T09:35:02.707Z,99.99
2022-10-24T09:36:02.686Z,99.99
2022-10-24T09:37:02.760Z,99.99
2022-10-24T09:38:02.672Z,99.99
2022-10-24T09:39:02.667Z,99.99
2022-10-24T09:40:02.680Z,99.99
2022-10-24T09:41:02.669Z,99.99
2022-10-24T09:42:02.626Z,99.99
2022-10-24T09:43:02.618Z,99.99
2022-10-24T09:44:02.603Z,99.99
2022-10-24T09:45:02.598Z,99.99
2022-10-24T09:46:02.611Z,99.99
2022-10-24T09:47:02.573Z,99.99
2022-10-24T09:48:02.570Z,99.99
2022-10-24T09:49:02.555Z,99.99
2022-10-24T09:50:02.540Z,99.99
2022-10-24T09:51:02.534Z,99.99
2022-10-24T09:52:02.548Z,99.99
2022-10-24T09:53:02.510Z,99.99
2022-10-24T09:54:02.502Z,99.99
2022-10-24T09:55:02.516Z,99.99
2022-10-24T09:56:02.487Z,99.99
2022-10-24T09:57:02.548Z,99.99
2022-10-24T09:58:02.449Z,99.99
2022-10-24T09:59:02.452Z,99.78
2022-10-24T10:00:02.432Z,99.99
2022-10-24T10:01:02.581Z,99.99
2022-10-24T10:02:02.569Z,99.99
2022-10-24T10:03:02.411Z,99.98
2022-10-24T10:04:07.599Z,99.78
2022-10-24T10:05:02.396Z,99.99
2022-10-24T10:06:02.369Z,97.86
2022-10-24T10:07:02.463Z,98.36
2022-10-24T10:08:02.367Z,98.07
2022-10-24T10:09:02.337Z,98.57
2022-10-24T10:10:02.349Z,98.93
2022-10-24T10:11:02.311Z,97.81
2022-10-24T10:12:03.012Z,98.22
2022-10-24T10:13:02.329Z,98.52
2022-10-24T10:14:02.276Z,97.81
2022-10-24T10:15:02.352Z,98.22
2022-10-24T10:16:02.330Z,97.21
2022-10-24T10:17:02.268Z,96.60
2022-10-24T10:18:02.248Z,97.61
2022-10-24T10:19:02.228Z,97.61
2022-10-24T10:20:02.206Z,96.60
2022-10-24T10:21:02.228Z,95.85
2022-10-24T10:22:02.186Z,94.84
2022-10-24T10:23:02.181Z,94.94
2022-10-24T10:24:02.196Z,95.55
2022-10-24T10:25:02.190Z,95.04
2022-10-24T10:26:02.159Z,95.04
2022-10-24T10:27:02.239Z,95.04
2022-10-24T10:28:03.156Z,94.34
2022-10-24T10:29:02.116Z,94.39
2022-10-24T10:30:02.103Z,94.49
2022-10-24T10:31:02.096Z,93.29
2022-10-24T10:32:02.075Z,93.08
2022-10-24T10:33:02.097Z,94.39
2022-10-24T10:34:02.055Z,92.88
2022-10-24T10:35:02.045Z,91.77
2022-10-24T10:36:02.033Z,92.07
2022-10-24T10:37:02.032Z,92.98
2022-10-24T10:38:02.047Z,92.58
2022-10-24T10:39:02.011Z,93.49
2022-10-24T10:40:01.994Z,92.98
2022-10-24T10:41:01.998Z,93.59
2022-10-24T10:42:01.976Z,92.47
2022-10-24T10:43:01.989Z,92.07
2022-10-24T10:44:01.966Z,91.27
2022-10-24T10:45:01.959Z,92.58
2022-10-24T10:46:01.929Z,93.29
2022-10-24T10:47:01.920Z,91.87
2022-10-24T10:48:01.908Z,92.07
2022-10-24T10:49:01.927Z,91.67
2022-10-24T10:50:01.910Z,91.97
2022-10-24T10:51:04.425Z,92.47
2022-10-24T10:52:01.868Z,91.47
2022-10-24T10:53:01.856Z,91.57
2022-10-24T10:54:01.863Z,91.53
2022-10-24T10:55:01.927Z,90.52
2022-10-24T10:56:01.834Z,90.82
2022-10-24T10:57:01.833Z,92.03
2022-10-24T10:58:01.817Z,91.22
2022-10-24T10:59:01.800Z,92.43
2022-10-24T11:00:01.798Z,91.73
2022-10-24T11:01:01.914Z,91.02
2022-10-24T11:02:02.085Z,91.42
2022-10-24T11:03:01.752Z,91.02
2022-10-24T11:04:01.736Z,92.83
2022-10-24T11:05:01.725Z,89.01
2022-10-24T11:06:01.705Z,89.71
2022-10-24T11:07:01.847Z,89.51
2022-10-24T11:08:01.702Z,91.13
2022-10-24T11:09:01.709Z,89.31
2022-10-24T11:10:01.717Z,90.82
2022-10-24T11:11:01.685Z,89.01
2022-10-24T11:12:01.687Z,89.21
2022-10-24T11:13:01.638Z,90.22
2022-10-24T11:14:01.639Z,89.37
2022-10-24T11:15:01.622Z,89.57
2022-10-24T11:16:01.619Z,88.86
2022-10-24T11:17:01.596Z,89.47
2022-10-24T11:18:07.588Z,89.67
2022-10-24T11:19:01.577Z,88.36
2022-10-24T11:20:01.671Z,89.57
2022-10-24T11:21:01.554Z,88.76
2022-10-24T11:22:01.577Z,86.95
2022-10-24T11:23:01.538Z,86.41
2022-10-24T11:24:01.512Z,86.21
2022-10-24T11:25:01.532Z,87.51
2022-10-24T11:26:01.501Z,85.80
2022-10-24T11:27:01.481Z,85.10
2022-10-24T11:28:01.486Z,86.30
2022-10-24T11:29:01.459Z,85.90
2022-10-24T11:30:01.457Z,84.69
2022-10-24T11:31:01.455Z,85.90
2022-10-24T11:32:01.490Z,85.60
2022-10-24T11:33:01.474Z,85.60
2022-10-24T11:34:01.410Z,86.00
2022-10-24T11:35:01.413Z,86.51
2022-10-24T11:36:01.388Z,85.00
2022-10-24T11:37:01.382Z,85.50
2022-10-24T11:38:01.379Z,83.89
2022-10-24T11:39:01.485Z,85.20
2022-10-24T11:40:01.352Z,84.49
2022-10-24T11:41:01.350Z,83.89
2022-10-24T11:42:01.340Z,83.14
2022-10-24T11:43:01.308Z,84.05
2022-10-24T11:44:01.320Z,84.45
2022-10-24T11:45:01.581Z,85.05
2022-10-24T11:46:01.290Z,84.35
2022-10-24T11:47:06.267Z,83.84
2022-10-24T11:48:01.271Z,84.25
2022-10-24T11:49:01.278Z,82.34
2022-10-24T11:50:01.299Z,82.34
2022-10-24T11:51:01.259Z,84.05
2022-10-24T11:52:01.210Z,83.75
2022-10-24T11:53:01.222Z,84.25
2022-10-24T11:54:01.222Z,81.73
2022-10-24T11:55:01.224Z,81.84
2022-10-24T11:56:01.172Z,81.93
2022-10-24T11:57:01.293Z,82.84
2022-10-24T11:58:01.158Z,84.25
2022-10-24T11:59:01.138Z,82.04
2022-10-24T12:00:01.136Z,82.14
2022-10-24T12:01:01.187Z,82.84
2022-10-24T12:02:01.112Z,83.14
2022-10-24T12:03:01.179Z,81.63
2022-10-24T12:04:01.089Z,81.53
2022-10-24T12:05:01.167Z,81.63
2022-10-24T12:06:01.056Z,80.99
2022-10-24T12:07:01.043Z,83.61
2022-10-24T12:08:01.055Z,81.70
2022-10-24T12:09:01.040Z,80.39
2022-10-24T12:10:01.021Z,80.08
2022-10-24T12:11:01.009Z,83.37
2022-10-24T12:12:01.020Z,82.06
2022-10-24T12:13:00.991Z,79.04
2022-10-24T12:15:00.967Z,80.65
2022-10-24T12:16:00.948Z,80.35
2022-10-24T12:17:00.938Z,81.62
2022-10-24T12:18:00.937Z,80.71
2022-10-24T12:19:00.925Z,79.50
2022-10-24T12:20:00.924Z,80.11
2022-10-24T12:21:00.899Z,81.32
2022-10-24T12:22:00.900Z,78.20
2022-10-24T12:23:00.897Z,80.71
2022-10-24T12:24:00.869Z,79.10
2022-10-24T12:25:00.887Z,80.11
2022-10-24T12:26:00.838Z,80.07
2022-10-24T12:27:00.842Z,80.27
2022-10-24T12:28:00.821Z,79.57
2022-10-24T12:29:00.853Z,77.36
2022-10-24T12:30:00.811Z,77.96
2022-10-24T12:31:00.812Z,76.25
2022-10-24T12:32:00.769Z,79.27
2022-10-24T12:33:00.772Z,78.66
2022-10-24T12:34:00.754Z,77.02
2022-10-24T12:35:30.817Z,77.32
2022-10-24T12:36:00.856Z,75.21
2022-10-24T12:37:00.745Z,76.82
2022-10-24T12:38:00.711Z,75.51
2022-10-24T12:39:00.711Z,75.42
2022-10-24T12:40:00.687Z,73.00
2022-10-24T12:41:00.723Z,72.20
2022-10-24T12:42:00.676Z,73.00
2022-10-24T12:43:00.654Z,71.09
2022-10-24T12:44:00.664Z,69.79
2022-10-24T12:45:00.648Z,69.72
2022-10-24T12:46:00.629Z,68.82
2022-10-24T12:47:00.634Z,70.43
2022-10-24T12:48:00.602Z,68.92
2022-10-24T12:49:00.600Z,70.32
2022-10-24T12:50:00.576Z,69.22
2022-10-24T12:51:00.578Z,68.12
2022-10-24T12:52:00.594Z,69.02
2022-10-24T12:53:00.571Z,68.41
2022-10-24T12:54:00.557Z,69.42
2022-10-24T12:55:00.529Z,67.51
2022-10-24T12:56:00.521Z,69.52
2022-10-24T12:57:00.541Z,69.22
2022-10-24T12:58:00.512Z,67.91
2022-10-24T12:59:00.545Z,69.32
2022-10-24T13:00:00.502Z,70.73
2022-10-24T13:01:00.525Z,69.02
2022-10-24T13:02:03.600Z,67.01
2022-10-24T13:03:00.521Z,70.03
2022-10-24T13:04:00.442Z,68.62
2022-10-24T13:05:00.433Z,70.43
2022-10-24T13:06:00.406Z,66.00
2022-10-24T13:07:00.412Z,68.62
2022-10-24T13:08:00.430Z,68.21
2022-10-24T13:09:00.433Z,68.92
2022-10-24T13:10:00.399Z,68.32
2022-10-24T13:11:00.360Z,67.98
2022-10-24T13:12:00.343Z,69.09
2022-10-24T13:13:00.368Z,68.18
2022-10-24T13:14:00.314Z,68.29
2022-10-24T13:15:00.349Z,65.37
2022-10-24T13:16:00.290Z,65.57
2022-10-24T13:17:00.309Z,65.17
2022-10-24T13:18:00.303Z,68.05
2022-10-24T13:19:00.275Z,65.64
2022-10-24T13:20:00.254Z,67.14
2022-10-24T13:21:00.248Z,66.14
2022-10-24T13:22:00.233Z,66.05
2022-10-24T13:23:00.242Z,66.35
2022-10-24T13:24:00.210Z,65.24
2022-10-24T13:25:00.238Z,64.74
2022-10-24T13:26:00.194Z,66.35
2022-10-24T13:27:00.191Z,66.24
2022-10-24T13:28:00.177Z,68.85
2022-10-24T13:29:00.190Z,66.14
2022-10-24T13:30:00.406Z,67.35
2022-10-24T13:31:00.158Z,67.05
2022-10-24T13:32:00.117Z,67.45
2022-10-24T13:33:00.115Z,68.25
2022-10-24T13:34:00.100Z,64.24
2022-10-24T13:35:00.122Z,65.44
2022-10-24T13:36:00.102Z,67.35
2022-10-24T13:37:00.096Z,65.17
2022-10-24T13:38:02.039Z,65.67
2022-10-24T13:39:00.063Z,68.88
2022-10-24T13:40:00.030Z,64.57
2022-10-24T13:41:00.058Z,66.35
2022-10-24T13:42:00.048Z,65.47
2022-10-24T13:43:00.037Z,67.65
2022-10-24T13:44:00.020Z,66.17
2022-10-24T13:44:59.995Z,67.58
2022-10-24T13:45:59.971Z,67.08
2022-10-24T13:46:59.967Z,68.08
2022-10-24T13:47:59.964Z,65.27
2022-10-24T13:48:59.951Z,66.58
2022-10-24T13:49:59.927Z,68.29
2022-10-24T13:50:59.924Z,65.07
2022-10-24T13:51:59.917Z,67.28
2022-10-24T13:52:59.895Z,67.18
2022-10-24T13:53:59.890Z,64.37
2022-10-24T13:54:59.940Z,66.58
2022-10-24T13:55:59.876Z,66.78
2022-10-24T13:57:02.108Z,67.18
2022-10-24T13:57:59.850Z,63.17
2022-10-24T13:58:59.842Z,63.39
2022-10-24T13:59:59.831Z,67.31
2022-10-24T14:00:59.890Z,66.00
2022-10-24T14:01:59.803Z,66.41
2022-10-24T14:02:59.914Z,69.12
2022-10-24T14:03:59.779Z,66.61
2022-10-24T14:04:59.782Z,70.43
2022-10-24T14:05:59.769Z,67.91
2022-10-24T14:06:59.760Z,67.71
2022-10-24T14:07:59.743Z,68.12
2022-10-24T14:09:06.939Z,67.91
2022-10-24T14:09:59.755Z,66.20
2022-10-24T14:10:59.694Z,68.21
2022-10-24T14:11:59.703Z,67.21
2022-10-24T14:12:59.694Z,67.91
2022-10-24T14:14:03.913Z,67.94
2022-10-24T14:14:59.674Z,68.95
2022-10-24T14:15:59.660Z,68.15
2022-10-24T14:16:59.633Z,70.46
2022-10-24T14:17:59.622Z,65.33
2022-10-24T14:18:59.648Z,67.94
2022-10-24T14:19:59.625Z,68.25
2022-10-24T14:20:59.583Z,70.76
2022-10-24T14:21:59.587Z,68.15
2022-10-24T14:22:59.598Z,66.64
2022-10-24T14:23:59.570Z,65.53
2022-10-24T14:24:59.583Z,68.25
2022-10-24T14:25:59.563Z,67.24
2022-10-24T14:26:59.538Z,69.06
2022-10-24T14:27:59.548Z,68.75
2022-10-24T14:29:00.159Z,66.54
2022-10-24T14:29:59.498Z,70.26
2022-10-24T14:30:59.486Z,68.98
2022-10-24T14:31:59.482Z,69.09
2022-10-24T14:32:59.458Z,66.97
2022-10-24T14:33:59.478Z,68.88
2022-10-24T14:34:59.447Z,68.78
2022-10-24T14:35:59.430Z,68.88
2022-10-24T14:36:59.429Z,64.36
2022-10-24T14:37:59.417Z,68.18
2022-10-24T14:38:59.411Z,64.36
2022-10-24T14:39:59.398Z,66.57
2022-10-24T14:41:09.087Z,67.27
2022-10-24T14:41:59.388Z,67.68
2022-10-24T14:42:59.358Z,68.59
2022-10-24T14:43:59.340Z,67.27
2022-10-24T14:44:59.372Z,66.87
2022-10-24T14:45:59.326Z,68.38
2022-10-24T14:46:59.352Z,68.48
2022-10-24T14:47:59.345Z,65.26
2022-10-24T14:48:59.323Z,65.47
2022-10-24T14:49:59.331Z,65.26
2022-10-24T14:50:59.332Z,65.56
2022-10-24T14:51:59.298Z,68.08
2022-10-24T14:52:59.246Z,67.35
2022-10-24T14:53:59.251Z,65.44
2022-10-24T14:54:59.246Z,65.87
2022-10-24T14:55:59.226Z,65.77
2022-10-24T14:56:59.206Z,66.27
2022-10-24T14:57:59.200Z,66.47
2022-10-24T14:58:59.174Z,69.56
2022-10-24T14:59:59.260Z,65.97
2022-10-24T15:00:59.177Z,69.99
2022-10-24T15:01:59.167Z,66.57
2022-10-24T15:02:59.145Z,65.77
2022-10-24T15:03:59.129Z,66.37
2022-10-24T15:04:59.106Z,66.57
2022-10-24T15:05:59.125Z,64.66
2022-10-24T15:06:59.119Z,66.37
2022-10-24T15:08:20.519Z,66.57
2022-10-24T15:09:01.015Z,64.86
2022-10-24T15:09:59.065Z,68.28
2022-10-24T15:10:59.060Z,67.58
2022-10-24T15:11:59.059Z,67.58
2022-10-24T15:12:59.049Z,68.18
2022-10-24T15:14:06.586Z,66.77
2022-10-24T15:14:59.032Z,70.50
2022-10-24T15:15:59.011Z,68.68
2022-10-24T15:17:59.025Z,70.50
2022-10-24T15:18:58.969Z,72.00
2022-10-24T15:19:58.946Z,68.18
2022-10-24T15:20:58.956Z,71.00
2022-10-24T15:21:58.923Z,69.92
2022-10-24T15:22:58.922Z,70.83
2022-10-24T15:23:58.949Z,70.73
2022-10-24T15:24:58.932Z,70.03
2022-10-24T15:25:58.891Z,69.42
2022-10-24T15:26:58.876Z,71.03
2022-10-24T15:27:58.917Z,68.91
2022-10-24T15:28:58.858Z,68.71
2022-10-24T15:29:58.850Z,66.50
2022-10-24T15:30:58.829Z,68.62
2022-10-24T15:31:58.832Z,70.93
2022-10-24T15:32:58.804Z,66.91
2022-10-24T15:33:58.827Z,69.62
2022-10-24T15:34:58.818Z,68.21
2022-10-24T15:35:58.784Z,70.16
2022-10-24T15:36:58.776Z,69.45
2022-10-24T15:37:58.755Z,68.15
2022-10-24T15:38:58.765Z,69.96
2022-10-24T15:39:58.773Z,71.97
2022-10-24T15:40:58.749Z,67.64
2022-10-24T15:41:58.799Z,70.06
2022-10-24T15:42:58.701Z,69.15
2022-10-24T15:43:58.715Z,70.66
2022-10-24T15:44:58.730Z,69.56
2022-10-24T15:45:58.733Z,69.18
2022-10-24T15:46:58.653Z,71.30
2022-10-24T15:47:58.654Z,66.97
2022-10-24T15:48:58.685Z,71.10
2022-10-24T15:49:58.629Z,71.60
2022-10-24T15:50:58.617Z,70.70
2022-10-24T15:51:58.668Z,70.39
2022-10-24T15:52:58.628Z,71.50
2022-10-24T15:53:58.609Z,68.68
2022-10-24T15:54:58.577Z,67.97
2022-10-24T15:55:58.574Z,68.28
2022-10-24T15:57:01.584Z,73.35
2022-10-24T15:57:58.591Z,72.85
2022-10-24T15:58:58.555Z,71.03
2022-10-24T15:59:58.510Z,69.01
2022-10-24T16:00:58.555Z,68.71
2022-10-24T16:01:58.528Z,70.53
2022-10-24T16:02:58.486Z,69.62
2022-10-24T16:03:58.499Z,70.73
2022-10-24T16:04:58.456Z,69.72
2022-10-24T16:05:58.446Z,69.92
2022-10-24T16:06:58.530Z,71.33
2022-10-24T16:07:58.438Z,71.03
2022-10-24T16:08:58.422Z,69.95
2022-10-24T16:09:58.425Z,70.56
2022-10-24T16:12:20.644Z,70.15
2022-10-24T16:13:21.625Z,68.65
2022-10-24T16:14:21.629Z,69.45
2022-10-24T16:15:21.649Z,73.28
2022-10-24T16:16:21.602Z,71.57
2022-10-24T16:17:21.593Z,68.95
2022-10-24T16:18:21.580Z,69.85
2022-10-24T16:19:21.566Z,70.15
2022-10-24T16:20:21.566Z,70.49
2022-10-24T16:21:21.573Z,71.10
2022-10-24T16:22:21.548Z,70.69
2022-10-24T16:23:21.517Z,73.62
2022-10-24T16:24:21.507Z,73.22
2022-10-24T16:25:21.499Z,72.61
2022-10-24T16:26:21.493Z,72.20
2022-10-24T16:27:21.498Z,71.70
2022-10-24T16:28:23.743Z,71.10
2022-10-24T16:29:21.455Z,72.11
2022-10-24T16:30:21.442Z,70.69
2022-10-24T16:31:21.466Z,72.31
2022-10-24T16:32:21.430Z,73.22
2022-10-24T16:33:21.435Z,73.82
2022-10-24T16:34:21.438Z,73.32
2022-10-24T16:35:21.389Z,73.82
2022-10-24T16:36:24.560Z,72.64
2022-10-24T16:37:21.384Z,72.54
2022-10-24T16:38:21.362Z,71.44
2022-10-24T16:39:21.375Z,74.05
2022-10-24T16:40:21.333Z,70.62
2022-10-24T16:41:21.332Z,70.53
2022-10-24T16:42:21.323Z,69.72
2022-10-24T16:43:21.323Z,69.92
2022-10-24T16:44:21.303Z,71.44
2022-10-24T16:45:21.317Z,71.84
2022-10-24T16:46:21.338Z,73.05
2022-10-24T16:47:21.334Z,71.33